createdAt,value
2022-11-07T00:00:20.710Z,2.80
2022-11-07T00:02:46.906Z,2.72
2022-11-07T00:05:13.052Z,2.60
2022-11-07T00:07:39.198Z,2.70
2022-11-07T00:10:05.306Z,2.60
2022-11-07T00:12:31.434Z,2.90
2022-11-07T00:14:57.564Z,2.40
2022-11-07T00:17:23.705Z,2.10
2022-11-07T00:19:49.855Z,2.40
2022-11-07T00:22:15.986Z,2.28
2022-11-07T00:24:42.108Z,2.85
2022-11-07T00:27:08.731Z,2.50
2022-11-07T00:29:34.885Z,2.30
2022-11-07T00:32:01.045Z,2.60
2022-11-07T00:34:27.174Z,2.30
2022-11-07T00:36:53.327Z,2.35
2022-11-07T00:39:19.445Z,2.80
2022-11-07T00:41:45.563Z,3.45
2022-11-07T00:44:11.700Z,2.00
2022-11-07T00:46:37.847Z,2.10
2022-11-07T00:49:03.969Z,2.65
2022-11-07T00:51:30.127Z,2.30
2022-11-07T00:53:56.252Z,2.40
2022-11-07T00:56:22.364Z,2.58
2022-11-07T00:58:48.506Z,2.75
2022-11-07T01:01:14.673Z,2.58
2022-11-07T01:03:40.848Z,1.90
2022-11-07T01:06:06.984Z,2.30
2022-11-07T01:08:33.148Z,2.35
2022-11-07T01:10:59.279Z,2.58
2022-11-07T01:13:25.398Z,2.75
2022-11-07T01:15:51.553Z,2.60
2022-11-07T01:18:17.672Z,2.42
2022-11-07T01:20:43.804Z,2.03
2022-11-07T01:23:09.953Z,2.60
2022-11-07T01:25:36.060Z,2.50
2022-11-07T01:28:02.293Z,2.50
2022-11-07T01:30:28.466Z,2.72
2022-11-07T01:32:54.600Z,2.75
2022-11-07T01:35:20.722Z,2.45
2022-11-07T01:37:46.841Z,2.80
2022-11-07T01:40:12.965Z,2.35
2022-11-07T01:42:39.069Z,2.50
2022-11-07T01:45:05.220Z,2.33
2022-11-07T01:47:31.348Z,2.60
2022-11-07T01:49:57.475Z,2.60
2022-11-07T01:52:23.623Z,2.17
2022-11-07T01:54:49.742Z,2.30
2022-11-07T01:57:15.870Z,2.47
2022-11-07T01:59:42.030Z,2.63
2022-11-07T02:02:08.285Z,2.83
2022-11-07T02:04:34.457Z,2.83
2022-11-07T02:07:00.622Z,2.22
2022-11-07T02:09:27.298Z,2.42
2022-11-07T02:11:53.441Z,2.10
2022-11-07T02:14:19.565Z,2.47
2022-11-07T02:16:45.675Z,2.55
2022-11-07T02:19:11.814Z,2.42
2022-11-07T02:21:37.956Z,2.47
2022-11-07T02:24:04.085Z,2.08
2022-11-07T02:26:30.207Z,2.53
2022-11-07T02:28:56.331Z,2.92
2022-11-07T02:31:22.508Z,2.20
2022-11-07T02:33:48.642Z,2.17
2022-11-07T02:36:14.779Z,2.10
2022-11-07T02:38:40.881Z,2.88
2022-11-07T02:41:07.005Z,2.47
2022-11-07T02:43:33.153Z,2.42
2022-11-07T02:45:59.279Z,2.55
2022-11-07T02:48:25.386Z,2.05
2022-11-07T02:50:51.537Z,2.97
2022-11-07T02:53:17.852Z,2.70
2022-11-07T02:55:44.222Z,2.35
2022-11-07T02:58:10.383Z,2.22
2022-11-07T03:00:36.496Z,2.33
2022-11-07T03:03:02.627Z,2.35
2022-11-07T03:05:28.780Z,2.35
2022-11-07T03:07:54.901Z,2.17
2022-11-07T03:10:21.056Z,2.20
2022-11-07T03:12:47.168Z,2.15
2022-11-07T03:15:13.265Z,2.20
2022-11-07T03:17:39.397Z,2.47
2022-11-07T03:20:05.529Z,2.08
2022-11-07T03:22:31.648Z,2.20
2022-11-07T03:24:57.775Z,2.33
2022-11-07T03:27:23.945Z,2.28
2022-11-07T03:29:50.049Z,2.30
2022-11-07T03:32:16.139Z,2.60
2022-11-07T03:34:42.268Z,2.22
2022-11-07T03:37:08.378Z,2.10
2022-11-07T03:39:34.503Z,2.10
2022-11-07T03:42:00.620Z,2.05
2022-11-07T03:44:26.745Z,2.50
2022-11-07T03:46:52.854Z,2.00
2022-11-07T03:49:18.972Z,2.25
2022-11-07T03:51:45.090Z,2.10
2022-11-07T03:54:11.246Z,2.13
2022-11-07T03:56:37.340Z,2.17
2022-11-07T03:59:03.461Z,2.20
2022-11-07T04:01:29.697Z,1.85
2022-11-07T04:03:56.491Z,2.42
2022-11-07T04:06:22.714Z,1.90
2022-11-07T04:08:48.828Z,1.73
2022-11-07T04:11:14.941Z,2.10
2022-11-07T04:13:41.086Z,2.08
2022-11-07T04:16:07.231Z,2.40
2022-11-07T04:18:33.370Z,1.95
2022-11-07T04:20:59.485Z,1.83
2022-11-07T04:23:25.618Z,1.95
2022-11-07T04:25:51.759Z,2.17
2022-11-07T04:28:18.007Z,2.50
2022-11-07T04:30:44.205Z,2.00
2022-11-07T04:33:10.331Z,1.90
2022-11-07T04:35:36.478Z,1.98
2022-11-07T04:38:02.615Z,2.00
2022-11-07T04:40:28.753Z,1.83
2022-11-07T04:42:54.887Z,2.00
2022-11-07T04:45:21.027Z,1.92
2022-11-07T04:47:47.871Z,2.05
2022-11-07T04:50:13.985Z,2.10
2022-11-07T04:52:40.190Z,2.20
2022-11-07T04:55:06.350Z,2.95
2022-11-07T04:57:32.542Z,2.00
2022-11-07T04:59:58.667Z,1.92
2022-11-07T05:02:24.947Z,2.10
2022-11-07T05:04:51.360Z,1.70
2022-11-07T05:07:17.472Z,2.10
2022-11-07T05:09:43.625Z,1.80
2022-11-07T05:12:09.796Z,1.80
2022-11-07T05:14:35.953Z,1.73
2022-11-07T05:17:02.101Z,1.90
2022-11-07T05:19:28.245Z,2.40
2022-11-07T05:21:54.397Z,1.98
2022-11-07T05:24:20.546Z,1.95
2022-11-07T05:26:46.673Z,1.90
2022-11-07T05:29:12.857Z,1.52
2022-11-07T05:31:39.079Z,1.65
2022-11-07T05:34:05.206Z,1.88
2022-11-07T05:36:31.366Z,1.98
2022-11-07T05:38:57.501Z,1.80
2022-11-07T05:41:23.627Z,1.70
2022-11-07T05:43:49.748Z,1.95
2022-11-07T05:46:15.914Z,1.92
2022-11-07T05:48:42.051Z,1.98
2022-11-07T05:51:08.203Z,2.00
2022-11-07T05:53:34.651Z,1.90
2022-11-07T05:56:02.154Z,2.05
2022-11-07T05:58:28.294Z,1.83
2022-11-07T06:00:54.462Z,2.17
2022-11-07T06:03:20.959Z,2.05
2022-11-07T06:05:47.344Z,2.60
2022-11-07T06:08:13.520Z,2.35
2022-11-07T06:10:39.687Z,2.20
2022-11-07T06:13:05.812Z,1.98
2022-11-07T06:15:31.953Z,2.05
2022-11-07T06:17:58.077Z,2.00
2022-11-07T06:20:24.258Z,2.00
2022-11-07T06:22:50.429Z,1.55
2022-11-07T06:25:16.631Z,1.63
2022-11-07T06:27:42.760Z,1.50
2022-11-07T06:30:08.906Z,2.25
2022-11-07T06:32:35.030Z,2.15
2022-11-07T06:35:01.272Z,1.70
2022-11-07T06:37:27.784Z,2.00
2022-11-07T06:39:53.904Z,2.38
2022-11-07T06:42:20.097Z,1.95
2022-11-07T06:44:46.282Z,2.05
2022-11-07T06:47:12.443Z,1.85
2022-11-07T06:49:38.586Z,2.17
2022-11-07T06:52:05.854Z,2.22
2022-11-07T06:54:32.038Z,1.67
2022-11-07T06:56:58.147Z,1.60
2022-11-07T06:59:24.336Z,1.73
2022-11-07T07:01:50.498Z,1.52
2022-11-07T07:04:16.663Z,2.30
2022-11-07T07:06:42.853Z,2.00
2022-11-07T07:09:09.078Z,1.70
2022-11-07T07:11:35.278Z,1.83
2022-11-07T07:14:02.461Z,1.63
2022-11-07T07:16:28.929Z,1.90
2022-11-07T07:18:55.086Z,1.95
2022-11-07T07:21:21.226Z,1.85
2022-11-07T07:23:47.389Z,2.10
2022-11-07T07:26:13.509Z,2.00
2022-11-07T07:28:39.701Z,2.00
2022-11-07T07:31:05.849Z,2.20
2022-11-07T07:33:31.993Z,2.08
2022-11-07T07:35:58.149Z,1.98
2022-11-07T07:38:24.314Z,2.08
2022-11-07T07:40:50.460Z,2.10
2022-11-07T07:43:16.919Z,2.22
2022-11-07T07:45:43.227Z,2.33
2022-11-07T07:48:09.410Z,2.20
2022-11-07T07:50:35.558Z,1.98
2022-11-07T07:53:07.766Z,1.77
2022-11-07T07:55:35.396Z,2.50
2022-11-07T07:58:01.574Z,2.20
2022-11-07T08:00:27.789Z,2.03
2022-11-07T08:02:54.012Z,2.22
2022-11-07T08:05:20.205Z,1.60
2022-11-07T08:07:49.077Z,2.05
2022-11-07T08:10:40.380Z,2.13
2022-11-07T08:13:01.363Z,1.75
2022-11-07T08:15:27.544Z,1.52
2022-11-07T08:17:53.687Z,2.35
2022-11-07T08:20:19.974Z,1.90
2022-11-07T08:22:46.155Z,2.47
2022-11-07T08:25:12.271Z,2.40
2022-11-07T08:27:38.406Z,2.00
2022-11-07T08:30:04.536Z,1.70
2022-11-07T08:32:30.703Z,1.92
2022-11-07T08:34:56.878Z,2.08
2022-11-07T08:37:23.035Z,1.60
2022-11-07T08:39:49.229Z,1.95
2022-11-07T08:42:15.383Z,2.00
2022-11-07T08:44:41.494Z,1.40
2022-11-07T08:47:08.757Z,2.03
2022-11-07T08:49:34.996Z,1.70
2022-11-07T08:52:01.114Z,1.65
2022-11-07T08:54:27.273Z,1.80
2022-11-07T08:56:53.435Z,2.13
2022-11-07T08:59:19.567Z,1.67
2022-11-07T09:02:14.414Z,1.85
2022-11-07T09:04:31.870Z,1.85
2022-11-07T09:06:58.050Z,2.10
2022-11-07T09:09:24.312Z,2.33
2022-11-07T09:11:50.467Z,1.60
2022-11-07T09:14:16.743Z,2.28
2022-11-07T09:16:42.875Z,1.73
2022-11-07T09:19:09.038Z,2.38
2022-11-07T09:21:35.184Z,2.10
2022-11-07T09:24:01.368Z,1.98
2022-11-07T09:26:27.850Z,2.55
2022-11-07T09:28:57.320Z,1.83
2022-11-07T09:31:27.033Z,2.03
2022-11-07T09:33:53.266Z,1.83
2022-11-07T09:36:19.394Z,2.40
2022-11-07T09:38:45.577Z,2.42
2022-11-07T09:41:11.711Z,2.10
2022-11-07T09:43:38.896Z,2.42
2022-11-07T09:46:05.076Z,2.28
2022-11-07T09:48:31.206Z,1.98
2022-11-07T09:50:57.624Z,2.53
2022-11-07T09:53:23.794Z,2.88
2022-11-07T09:55:49.985Z,2.03
2022-11-07T09:58:16.110Z,2.30
2022-11-07T10:00:42.268Z,1.65
2022-11-07T10:03:08.438Z,1.95
2022-11-07T10:05:34.588Z,2.25
2022-11-07T10:08:00.717Z,2.15
2022-11-07T10:10:26.837Z,2.35
2022-11-07T10:12:52.982Z,1.75
2022-11-07T10:15:19.126Z,2.00
2022-11-07T10:17:45.233Z,1.90
2022-11-07T10:20:11.387Z,1.70
2022-11-07T10:22:37.572Z,2.00
2022-11-07T10:25:03.765Z,2.22
2022-11-07T10:27:32.798Z,2.00
2022-11-07T10:29:59.115Z,2.58
2022-11-07T10:32:25.296Z,1.88
2022-11-07T10:34:54.334Z,2.38
2022-11-07T10:37:20.970Z,1.95
2022-11-07T10:39:47.163Z,1.73
2022-11-07T10:42:13.281Z,1.45
2022-11-07T10:44:39.429Z,2.00
2022-11-07T10:47:05.596Z,1.67
2022-11-07T10:49:31.758Z,1.80
2022-11-07T10:51:57.919Z,1.92
2022-11-07T10:54:24.078Z,1.50
2022-11-07T10:56:50.236Z,1.42
2022-11-07T10:59:16.374Z,1.50
2022-11-07T11:01:42.609Z,1.27
2022-11-07T11:04:08.798Z,1.33
2022-11-07T11:06:34.935Z,1.30
2022-11-07T11:09:01.085Z,1.25
2022-11-07T11:11:27.240Z,1.38
2022-11-07T11:13:53.379Z,1.58
2022-11-07T11:16:19.563Z,1.50
2022-11-07T11:18:45.750Z,1.70
2022-11-07T11:21:11.880Z,1.42
2022-11-07T11:23:38.026Z,1.50
2022-11-07T11:26:04.152Z,1.45
2022-11-07T11:28:30.314Z,2.15
2022-11-07T11:31:02.204Z,1.15
2022-11-07T11:33:28.329Z,1.20
2022-11-07T11:35:54.471Z,1.80
2022-11-07T11:38:20.629Z,1.50
2022-11-07T11:40:49.857Z,1.40
2022-11-07T11:43:16.153Z,1.63
2022-11-07T11:45:42.450Z,1.40
2022-11-07T11:48:08.622Z,1.55
2022-11-07T11:50:40.792Z,1.60
2022-11-07T11:53:06.975Z,1.55
2022-11-07T11:55:33.118Z,1.50
2022-11-07T11:57:59.370Z,2.03
2022-11-07T12:00:25.522Z,2.00
2022-11-07T12:02:51.633Z,1.65
2022-11-07T12:05:17.772Z,1.73
2022-11-07T12:07:43.883Z,1.95
2022-11-07T12:10:10.025Z,2.00
2022-11-07T12:12:36.158Z,1.92
2022-11-07T12:15:02.338Z,1.65
2022-11-07T12:17:28.489Z,1.38
2022-11-07T12:19:54.647Z,1.83
2022-11-07T12:22:20.828Z,1.33
2022-11-07T12:24:46.957Z,1.42
2022-11-07T12:27:13.089Z,1.90
2022-11-07T12:29:39.289Z,1.70
2022-11-07T12:32:05.600Z,1.23
2022-11-07T12:34:31.758Z,1.35
2022-11-07T12:36:57.953Z,1.50
2022-11-07T12:39:24.123Z,1.33
2022-11-07T12:41:50.263Z,1.88
2022-11-07T12:44:16.418Z,1.33
2022-11-07T12:46:42.551Z,1.52
2022-11-07T12:49:08.707Z,2.00
2022-11-07T12:51:34.832Z,1.35
2022-11-07T12:54:01.002Z,1.38
2022-11-07T12:56:27.136Z,1.80
2022-11-07T12:58:53.280Z,1.50
2022-11-07T13:01:19.513Z,1.50
2022-11-07T13:03:45.732Z,1.50
2022-11-07T13:06:11.893Z,1.90
2022-11-07T13:08:38.037Z,2.05
2022-11-07T13:11:04.198Z,1.20
2022-11-07T13:13:30.342Z,2.08
2022-11-07T13:18:42.725Z,1.60
2022-11-07T13:21:08.871Z,1.50
2022-11-07T13:23:35.059Z,1.80
2022-11-07T13:26:06.985Z,2.00
2022-11-07T13:28:41.205Z,1.50
2022-11-07T13:31:08.039Z,2.13
2022-11-07T13:33:34.258Z,2.15
2022-11-07T13:36:00.412Z,1.77
2022-11-07T13:38:26.584Z,1.60
2022-11-07T13:40:52.722Z,2.00
2022-11-07T13:43:19.140Z,1.55
2022-11-07T13:45:45.552Z,1.83
2022-11-07T13:48:11.827Z,1.48
2022-11-07T13:50:37.967Z,1.55
2022-11-07T13:53:04.148Z,1.35
2022-11-07T13:55:30.314Z,1.65
2022-11-07T13:57:56.444Z,1.40
2022-11-07T14:00:22.673Z,1.70
2022-11-07T14:02:48.936Z,1.55
2022-11-07T14:05:16.722Z,1.25
2022-11-07T14:07:43.560Z,1.45
2022-11-07T14:10:09.763Z,1.77
2022-11-07T14:12:36.262Z,1.63
2022-11-07T14:15:02.388Z,1.50
2022-11-07T14:17:28.535Z,1.50
2022-11-07T14:19:54.680Z,1.65
2022-11-07T14:22:20.877Z,1.77
2022-11-07T14:24:47.050Z,1.88
2022-11-07T14:27:13.189Z,2.10
2022-11-07T14:29:39.377Z,1.80
2022-11-07T14:32:05.561Z,1.60
2022-11-07T14:34:31.700Z,1.38
2022-11-07T14:36:57.857Z,1.42
2022-11-07T14:39:23.977Z,1.30
2022-11-07T14:41:50.296Z,1.60
2022-11-07T14:44:16.652Z,1.60
2022-11-07T14:46:42.775Z,1.67
2022-11-07T14:49:08.945Z,1.80
2022-11-07T14:51:35.084Z,1.50
2022-11-07T14:54:01.244Z,1.13
2022-11-07T14:56:27.380Z,1.58
2022-11-07T14:58:53.522Z,1.58
2022-11-07T15:01:19.699Z,1.40
2022-11-07T15:03:45.853Z,1.65
2022-11-07T15:06:11.994Z,2.15
2022-11-07T15:08:39.205Z,1.52
2022-11-07T15:11:05.349Z,1.10
2022-11-07T15:13:31.547Z,1.75
2022-11-07T15:15:57.708Z,1.20
2022-11-07T15:18:23.891Z,1.40
2022-11-07T15:20:50.085Z,1.85
2022-11-07T15:23:16.214Z,1.95
2022-11-07T15:25:42.406Z,1.70
2022-11-07T15:28:08.582Z,1.63
2022-11-07T15:30:34.740Z,1.67
2022-11-07T15:33:00.939Z,1.70
2022-11-07T15:35:43.471Z,1.90
2022-11-07T15:38:10.830Z,1.38
2022-11-07T15:40:37.012Z,1.65
2022-11-07T15:43:03.148Z,2.17
2022-11-07T15:45:29.277Z,1.63
2022-11-07T15:47:55.463Z,2.53
2022-11-07T15:50:21.622Z,2.05
2022-11-07T15:52:47.837Z,1.85
2022-11-07T15:55:13.953Z,1.60
2022-11-07T15:57:40.097Z,1.88
2022-11-07T16:00:06.231Z,1.42
2022-11-07T16:02:32.517Z,2.95
2022-11-07T16:04:58.724Z,1.52
2022-11-07T16:07:24.878Z,1.73
2022-11-07T16:09:54.322Z,2.08
2022-11-07T16:12:20.471Z,1.63
2022-11-07T16:14:46.653Z,1.63
2022-11-07T16:17:23.104Z,1.85
2022-11-07T16:19:49.225Z,1.42
2022-11-07T16:22:15.396Z,1.95
2022-11-07T16:24:47.400Z,1.73
2022-11-07T16:27:13.565Z,1.65
2022-11-07T16:29:39.692Z,2.00
2022-11-07T16:32:05.850Z,1.90
2022-11-07T16:34:31.990Z,1.80
2022-11-07T16:36:58.158Z,2.58
2022-11-07T16:39:24.302Z,2.17
2022-11-07T16:41:50.446Z,1.95
2022-11-07T16:44:20.407Z,2.30
2022-11-07T16:46:49.380Z,2.53
2022-11-07T16:49:15.547Z,1.90
2022-11-07T16:51:41.710Z,1.98
2022-11-07T16:54:07.854Z,2.30
2022-11-07T16:56:34.054Z,2.00
2022-11-07T16:59:00.192Z,2.20
2022-11-07T17:01:26.464Z,5.32
2022-11-07T17:03:52.905Z,3.00
2022-11-07T17:06:19.048Z,3.20
2022-11-07T17:08:45.252Z,2.67
2022-11-07T17:11:11.382Z,2.30
2022-11-07T17:13:37.536Z,2.80
2022-11-07T17:16:03.695Z,2.65
2022-11-07T17:18:29.837Z,3.13
2022-11-07T17:20:55.999Z,2.83
2022-11-07T17:23:29.740Z,2.95
2022-11-07T17:25:56.279Z,3.17
2022-11-07T17:28:22.427Z,3.20
2022-11-07T17:30:48.754Z,3.45
2022-11-07T17:33:14.936Z,2.63
2022-11-07T17:35:41.090Z,2.17
2022-11-07T17:38:07.226Z,2.10
2022-11-07T17:40:33.388Z,1.77
2022-11-07T17:42:59.539Z,1.73
2022-11-07T17:45:25.775Z,2.83
2022-11-07T17:47:51.921Z,2.42
2022-11-07T17:50:18.065Z,2.33
2022-11-07T17:52:44.269Z,2.42
2022-11-07T17:55:10.428Z,2.15
2022-11-07T17:57:43.885Z,2.25
2022-11-07T18:00:10.097Z,2.38
2022-11-07T18:02:36.467Z,2.63
2022-11-07T18:05:02.681Z,2.67
2022-11-07T18:07:28.858Z,2.72
2022-11-07T18:09:56.266Z,3.10
2022-11-07T18:12:22.412Z,2.90
2022-11-07T18:14:48.579Z,3.13
2022-11-07T18:17:14.717Z,3.03
2022-11-07T18:19:40.901Z,2.75
2022-11-07T18:22:07.050Z,2.67
2022-11-07T18:24:33.204Z,3.30
2022-11-07T18:26:59.356Z,3.17
2022-11-07T18:29:25.491Z,3.72
2022-11-07T18:31:51.675Z,2.60
2022-11-07T18:34:17.917Z,2.95
2022-11-07T18:36:44.159Z,2.78
2022-11-07T18:39:10.308Z,3.72
2022-11-07T18:41:36.512Z,2.88
2022-11-07T18:44:05.651Z,3.13
2022-11-07T18:46:31.858Z,2.80
2022-11-07T18:51:48.336Z,3.13
2022-11-07T18:54:14.529Z,3.30
2022-11-07T18:56:40.809Z,3.88
2022-11-07T18:59:06.983Z,3.13
2022-11-07T19:01:33.423Z,2.85
2022-11-07T19:04:01.594Z,2.80
2022-11-07T19:06:27.736Z,2.65
2022-11-07T19:08:53.905Z,3.03
2022-11-07T19:11:20.088Z,3.40
2022-11-07T19:13:46.218Z,3.83
2022-11-07T19:16:12.430Z,4.63
2022-11-07T19:18:38.552Z,4.47
2022-11-07T19:21:06.865Z,4.60
2022-11-07T19:23:33.062Z,4.20
2022-11-07T19:26:00.377Z,4.38
2022-11-07T19:28:26.502Z,4.18
2022-11-07T19:30:52.668Z,5.82
2022-11-07T19:33:19.248Z,5.53
2022-11-07T19:35:45.612Z,6.05
2022-11-07T19:38:11.802Z,5.25
2022-11-07T19:40:38.039Z,6.07
2022-11-07T19:43:04.204Z,7.60
2022-11-07T19:45:30.374Z,7.95
2022-11-07T19:47:56.980Z,8.45
2022-11-07T19:50:23.137Z,9.07
2022-11-07T19:52:49.303Z,7.30
2022-11-07T19:55:15.436Z,7.65
2022-11-07T19:57:41.601Z,7.85
2022-11-07T20:00:07.797Z,6.35
2022-11-07T20:02:37.518Z,13.55
2022-11-07T20:05:06.318Z,5.40
2022-11-07T20:07:32.471Z,4.97
2022-11-07T20:09:58.595Z,4.20
2022-11-07T20:12:24.759Z,4.22
2022-11-07T20:14:50.921Z,4.13
2022-11-07T20:17:17.049Z,3.53
2022-11-07T20:19:43.183Z,3.95
2022-11-07T20:22:09.402Z,3.83
2022-11-07T20:24:35.563Z,4.00
2022-11-07T20:27:01.735Z,3.53
2022-11-07T20:29:27.888Z,4.15
2022-11-07T20:31:53.996Z,4.38
2022-11-07T20:37:10.287Z,4.43
2022-11-07T20:39:36.447Z,4.60
2022-11-07T20:42:02.553Z,4.60
2022-11-07T20:44:28.715Z,5.07
2022-11-07T20:46:54.908Z,8.32
2022-11-07T20:49:21.223Z,10.93
2022-11-07T20:51:47.380Z,9.80
2022-11-07T20:54:13.515Z,8.63
2022-11-07T20:56:39.673Z,8.88
2022-11-07T20:59:05.782Z,12.07
2022-11-07T21:01:32.108Z,12.10
2022-11-07T21:03:58.365Z,10.52
2022-11-07T21:06:24.541Z,10.45
2022-11-07T21:08:50.709Z,8.95
2022-11-07T21:11:16.895Z,7.57
2022-11-07T21:13:46.505Z,7.65
2022-11-07T21:16:17.531Z,7.05
2022-11-07T21:18:43.682Z,6.22
2022-11-07T21:21:09.806Z,5.50
2022-11-07T21:23:35.963Z,4.50
2022-11-07T21:26:02.114Z,4.30
2022-11-07T21:28:28.254Z,3.88
2022-11-07T21:30:54.393Z,4.80
2022-11-07T21:33:22.530Z,4.28
2022-11-07T21:35:48.751Z,5.60
2022-11-07T21:38:14.873Z,6.05
2022-11-07T21:40:40.997Z,4.68
2022-11-07T21:43:07.138Z,4.18
2022-11-07T21:45:33.296Z,4.20
2022-11-07T21:47:59.439Z,4.10
2022-11-07T21:53:11.690Z,4.07
2022-11-07T21:55:37.909Z,5.32
2022-11-07T21:58:04.028Z,4.60
2022-11-07T22:00:35.501Z,4.25
2022-11-07T22:03:02.572Z,4.05
2022-11-07T22:05:28.713Z,4.90
2022-11-07T22:07:54.831Z,4.90
2022-11-07T22:10:20.953Z,4.55
2022-11-07T22:12:47.091Z,4.47
2022-11-07T22:15:13.240Z,4.00
2022-11-07T22:17:39.383Z,4.68
2022-11-07T22:20:05.545Z,4.13
2022-11-07T22:22:31.690Z,3.95
2022-11-07T22:24:57.809Z,4.25
2022-11-07T22:27:23.952Z,4.10
2022-11-07T22:29:50.086Z,4.03
2022-11-07T22:32:16.247Z,4.47
2022-11-07T22:34:42.380Z,4.20
2022-11-07T22:37:08.503Z,3.72
2022-11-07T22:39:34.636Z,4.20
2022-11-07T22:42:00.750Z,3.58
2022-11-07T22:44:26.882Z,3.47
2022-11-07T22:46:53.020Z,3.83
2022-11-07T22:49:19.138Z,3.35
2022-11-07T22:51:45.293Z,3.03
2022-11-07T22:54:11.452Z,3.83
2022-11-07T22:56:37.618Z,3.47
2022-11-07T22:59:03.760Z,3.45
2022-11-07T23:01:29.959Z,2.95
2022-11-07T23:03:56.199Z,3.15
2022-11-07T23:06:22.350Z,3.85
2022-11-07T23:08:48.529Z,3.08
2022-11-07T23:11:44.745Z,3.42
2022-11-07T23:14:00.855Z,3.15
2022-11-07T23:16:32.130Z,3.50
2022-11-07T23:18:58.744Z,3.15
2022-11-07T23:21:24.884Z,3.28
2022-11-07T23:23:51.037Z,2.47
2022-11-07T23:26:17.186Z,3.13
2022-11-07T23:28:43.316Z,2.67
2022-11-07T23:31:09.424Z,3.30
2022-11-07T23:33:35.588Z,3.05
2022-11-07T23:36:01.717Z,2.85
2022-11-07T23:38:27.879Z,3.33
2022-11-07T23:40:54.026Z,2.70
2022-11-07T23:43:20.182Z,2.63
2022-11-07T23:45:46.334Z,2.90
2022-11-07T23:48:12.467Z,2.65
2022-11-07T23:50:38.602Z,3.25
2022-11-07T23:53:04.729Z,3.10
2022-11-07T23:55:30.891Z,3.10
2022-11-07T23:57:57.038Z,2.60
